createdAt,value
2023-02-19T00:04:44.461Z,2.85
2023-02-19T00:09:48.602Z,2.87
2023-02-19T00:14:56.190Z,2.92
2023-02-19T00:20:00.564Z,2.97
2023-02-19T00:25:04.575Z,2.98
2023-02-19T00:30:09.454Z,2.92
2023-02-19T00:35:14.782Z,2.91
2023-02-19T00:40:19.635Z,2.92
2023-02-19T00:45:25.232Z,2.88
2023-02-19T00:50:29.980Z,2.84
2023-02-19T00:55:34.739Z,2.89
2023-02-19T01:00:39.281Z,2.93
2023-02-19T01:05:43.760Z,2.91
2023-02-19T01:10:47.844Z,2.89
2023-02-19T01:15:52.974Z,2.92
2023-02-19T01:20:57.255Z,2.91
2023-02-19T01:26:05.900Z,2.87
2023-02-19T01:31:14.608Z,2.90
2023-02-19T01:36:20.816Z,2.91
2023-02-19T01:41:26.989Z,2.87
2023-02-19T01:46:38.946Z,2.84
2023-02-19T01:51:48.990Z,2.88
2023-02-19T01:56:55.258Z,2.84
2023-02-19T02:02:00.314Z,2.83
2023-02-19T02:07:26.982Z,2.85
2023-02-19T02:12:31.682Z,2.85
2023-02-19T02:18:03.304Z,2.90
2023-02-19T02:23:49.877Z,2.94
2023-02-19T02:29:15.745Z,2.91
2023-02-19T02:34:25.959Z,2.89
2023-02-19T02:39:33.975Z,2.93
2023-02-19T02:44:40.897Z,2.97
2023-02-19T02:50:05.442Z,3.04
2023-02-19T02:55:12.511Z,3.02
2023-02-19T03:00:17.409Z,3.05
2023-02-19T03:05:44.454Z,3.04
2023-02-19T03:11:28.953Z,3.00
2023-02-19T03:16:55.802Z,3.04
2023-02-19T03:22:12.072Z,3.05
2023-02-19T03:27:21.036Z,3.01
2023-02-19T03:32:31.516Z,2.93
2023-02-19T03:38:00.983Z,2.95
2023-02-19T03:43:13.498Z,2.93
2023-02-19T03:48:25.846Z,2.88
2023-02-19T03:53:46.930Z,2.87
2023-02-19T03:58:55.629Z,2.87
2023-02-19T04:04:41.430Z,2.91
2023-02-19T04:09:49.945Z,2.90
2023-02-19T04:15:02.702Z,2.87
2023-02-19T04:20:11.197Z,2.84
2023-02-19T04:25:16.633Z,2.87
2023-02-19T04:30:22.564Z,2.86
2023-02-19T04:35:27.295Z,2.83
2023-02-19T04:40:31.821Z,2.75
2023-02-19T04:45:38.507Z,2.75
2023-02-19T04:50:43.191Z,2.77
2023-02-19T04:55:48.750Z,2.76
2023-02-19T05:00:54.374Z,2.74
2023-02-19T05:05:58.236Z,2.71
2023-02-19T05:11:04.742Z,2.70
2023-02-19T05:16:17.108Z,2.72
2023-02-19T05:21:22.321Z,2.74
2023-02-19T05:26:27.195Z,2.73
2023-02-19T05:31:30.933Z,2.73
2023-02-19T05:36:37.960Z,2.73
2023-02-19T05:41:42.254Z,2.73
2023-02-19T05:46:46.747Z,2.72
2023-02-19T05:51:55.050Z,2.74
2023-02-19T05:56:59.576Z,2.75
2023-02-19T06:02:03.597Z,2.72
2023-02-19T06:07:09.122Z,2.71
2023-02-19T06:12:15.297Z,2.70
2023-02-19T06:17:20.115Z,2.70
2023-02-19T06:22:23.740Z,2.68
2023-02-19T06:27:27.672Z,2.70
2023-02-19T06:32:31.638Z,2.75
2023-02-19T06:37:35.614Z,2.75
2023-02-19T06:42:39.984Z,2.79
2023-02-19T06:47:44.027Z,2.80
2023-02-19T06:52:49.016Z,2.85
2023-02-19T06:57:53.181Z,2.87
2023-02-19T07:02:57.137Z,2.91
2023-02-19T07:08:02.325Z,2.89
2023-02-19T07:13:06.921Z,2.93
2023-02-19T07:18:11.833Z,2.98
2023-02-19T07:23:16.391Z,3.06
2023-02-19T07:28:20.592Z,3.19
2023-02-19T07:33:24.797Z,3.38
2023-02-19T07:38:29.362Z,3.59
2023-02-19T07:43:37.168Z,3.73
2023-02-19T07:48:43.490Z,3.76
2023-02-19T07:53:48.041Z,3.80
2023-02-19T07:58:51.754Z,3.82
2023-02-19T08:03:56.102Z,3.72
2023-02-19T08:09:00.387Z,3.68
2023-02-19T08:14:04.650Z,3.79
2023-02-19T08:19:08.448Z,3.83
2023-02-19T08:24:12.349Z,3.84
2023-02-19T08:29:16.476Z,3.87
2023-02-19T08:34:21.089Z,3.88
2023-02-19T08:39:25.284Z,3.93
2023-02-19T08:44:30.598Z,3.98
2023-02-19T08:49:34.960Z,4.11
2023-02-19T08:54:40.016Z,4.18
2023-02-19T08:59:44.993Z,4.18
2023-02-19T09:04:49.349Z,4.13
2023-02-19T09:09:54.092Z,4.11
2023-02-19T09:14:58.564Z,4.00
2023-02-19T09:20:02.727Z,4.02
2023-02-19T09:25:06.915Z,4.10
2023-02-19T09:30:10.993Z,4.21
2023-02-19T09:35:14.592Z,4.41
2023-02-19T09:40:22.140Z,4.57
2023-02-19T09:45:27.088Z,4.62
2023-02-19T09:50:41.660Z,4.68
2023-02-19T09:55:46.565Z,4.91
2023-02-19T10:00:51.873Z,5.12
2023-02-19T10:05:56.986Z,5.16
2023-02-19T10:11:03.925Z,5.23
2023-02-19T10:16:18.247Z,5.21
2023-02-19T10:21:28.700Z,5.26
2023-02-19T10:26:37.727Z,5.50
2023-02-19T10:31:43.838Z,5.60
2023-02-19T10:36:55.155Z,5.68
2023-02-19T10:42:01.184Z,5.62
2023-02-19T10:47:07.370Z,5.47
2023-02-19T10:52:28.230Z,5.49
2023-02-19T10:57:35.942Z,5.48
2023-02-19T11:02:42.311Z,5.35
2023-02-19T11:07:55.769Z,5.22
2023-02-19T11:13:04.610Z,5.22
2023-02-19T11:18:15.547Z,5.36
2023-02-19T11:23:25.410Z,5.54
2023-02-19T11:28:45.045Z,5.61
2023-02-19T11:34:16.188Z,5.65
2023-02-19T11:39:29.409Z,5.47
2023-02-19T11:45:09.756Z,5.34
2023-02-19T11:50:34.479Z,5.57
2023-02-19T11:55:47.363Z,5.63
2023-02-19T12:01:12.268Z,5.75
2023-02-19T12:06:54.326Z,5.66
2023-02-19T12:12:09.762Z,5.53
2023-02-19T12:17:19.911Z,5.63
2023-02-19T12:23:06.654Z,6.06
2023-02-19T12:28:54.858Z,6.34
2023-02-19T12:34:21.918Z,6.30
2023-02-19T12:39:37.303Z,6.22
2023-02-19T12:44:52.758Z,6.27
2023-02-19T12:50:20.306Z,6.15
2023-02-19T12:55:36.739Z,6.24
2023-02-19T13:00:55.062Z,6.52
2023-02-19T13:06:15.583Z,6.59
2023-02-19T13:11:36.648Z,6.18
2023-02-19T13:16:45.206Z,5.81
2023-02-19T13:22:52.231Z,5.67
2023-02-19T13:28:28.939Z,5.72
2023-02-19T13:33:58.196Z,5.77
2023-02-19T13:39:07.101Z,5.99
2023-02-19T13:44:22.981Z,5.85
2023-02-19T13:49:37.310Z,5.58
2023-02-19T13:54:47.229Z,5.39
2023-02-19T13:59:55.684Z,5.42
2023-02-19T14:05:08.538Z,5.44
2023-02-19T14:10:16.104Z,5.45
2023-02-19T14:15:40.747Z,5.31
2023-02-19T14:20:46.957Z,5.08
2023-02-19T14:25:57.465Z,4.91
2023-02-19T14:31:21.567Z,4.75
2023-02-19T14:36:35.846Z,4.70
2023-02-19T14:41:45.531Z,4.65
2023-02-19T14:46:58.907Z,4.64
2023-02-19T14:52:07.997Z,4.80
2023-02-19T14:57:23.279Z,4.80
2023-02-19T15:02:30.561Z,4.67
2023-02-19T15:07:36.774Z,4.56
2023-02-19T15:12:52.986Z,4.45
2023-02-19T15:17:59.696Z,4.38
2023-02-19T15:23:07.069Z,4.35
2023-02-19T15:28:26.687Z,4.27
2023-02-19T15:33:31.750Z,4.15
2023-02-19T15:38:37.053Z,4.01
2023-02-19T15:43:51.836Z,3.92
2023-02-19T15:49:03.964Z,3.84
2023-02-19T15:54:27.142Z,3.78
2023-02-19T15:59:47.794Z,3.78
2023-02-19T16:04:51.623Z,3.73
2023-02-19T16:10:20.842Z,3.64
2023-02-19T16:15:26.281Z,3.55
2023-02-19T16:20:33.489Z,3.49
2023-02-19T16:25:45.098Z,3.38
2023-02-19T16:31:01.411Z,3.26
2023-02-19T16:36:36.991Z,3.19
2023-02-19T16:41:41.212Z,3.19
2023-02-19T16:46:44.846Z,3.18
2023-02-19T16:51:49.581Z,3.16
2023-02-19T16:56:53.276Z,3.06
2023-02-19T17:01:58.074Z,2.97
2023-02-19T17:07:03.878Z,2.84
2023-02-19T17:12:16.813Z,2.72
2023-02-19T17:17:23.468Z,2.62
2023-02-19T17:22:28.251Z,2.55
2023-02-19T17:27:33.932Z,2.53
2023-02-19T17:32:37.724Z,2.45
2023-02-19T17:37:42.875Z,2.35
2023-02-19T17:42:47.391Z,2.24
2023-02-19T17:47:54.938Z,2.12
2023-02-19T17:53:01.623Z,2.01
2023-02-19T17:58:07.181Z,1.94
2023-02-19T18:03:14.039Z,1.95
2023-02-19T18:08:22.053Z,1.97
2023-02-19T18:13:29.577Z,1.91
2023-02-19T18:18:40.272Z,1.84
2023-02-19T18:23:48.609Z,1.75
2023-02-19T18:28:55.337Z,1.67
2023-02-19T18:34:00.924Z,1.61
2023-02-19T18:39:09.064Z,1.60
2023-02-19T18:44:18.877Z,1.56
2023-02-19T18:49:23.553Z,1.46
2023-02-19T18:54:29.861Z,1.36
2023-02-19T18:59:37.798Z,1.31
2023-02-19T19:04:49.850Z,1.27
2023-02-19T19:09:57.991Z,1.22
2023-02-19T19:15:04.311Z,1.15
2023-02-19T19:20:14.071Z,1.11
2023-02-19T19:25:20.376Z,1.04
2023-02-19T19:30:26.095Z,0.92
2023-02-19T19:35:32.005Z,0.82
2023-02-19T19:40:36.779Z,0.74
2023-02-19T19:45:43.174Z,0.73
2023-02-19T19:50:49.220Z,0.70
2023-02-19T19:55:55.321Z,0.67
2023-02-19T20:01:02.793Z,0.62
2023-02-19T20:06:09.435Z,0.57
2023-02-19T20:11:15.635Z,0.51
2023-02-19T20:16:26.744Z,0.54
2023-02-19T20:21:32.789Z,0.54
2023-02-19T20:26:37.593Z,0.49
2023-02-19T20:31:50.507Z,0.45
2023-02-19T20:36:57.649Z,0.39
2023-02-19T20:42:05.456Z,0.33
2023-02-19T20:47:12.814Z,0.32
2023-02-19T20:52:23.134Z,0.33
2023-02-19T20:57:27.407Z,0.31
2023-02-19T21:02:32.278Z,0.28
2023-02-19T21:07:36.743Z,0.25
2023-02-19T21:12:40.296Z,0.16
2023-02-19T21:17:47.313Z,0.07
2023-02-19T21:22:52.247Z,0.06
2023-02-19T21:27:56.578Z,0.09
2023-02-19T21:33:01.299Z,0.11
2023-02-19T21:38:05.322Z,0.07
2023-02-19T21:43:09.776Z,0.02
2023-02-19T21:48:13.276Z,-0.03
2023-02-19T21:53:17.386Z,-0.08
2023-02-19T21:58:22.459Z,-0.06
2023-02-19T22:03:27.473Z,-0.07
2023-02-19T22:08:31.984Z,-0.08
2023-02-19T22:13:37.242Z,-0.11
2023-02-19T22:18:50.726Z,-0.12
2023-02-19T22:23:55.564Z,-0.08
2023-02-19T22:29:03.251Z,-0.01
2023-02-19T22:34:08.248Z,0.02
2023-02-19T22:39:25.257Z,0.03
2023-02-19T22:44:29.915Z,0.04
2023-02-19T22:49:34.938Z,0.05
2023-02-19T22:54:39.815Z,0.12
2023-02-19T22:59:44.710Z,0.17
2023-02-19T23:04:49.121Z,0.22
2023-02-19T23:09:54.937Z,0.26
2023-02-19T23:15:01.331Z,0.25
2023-02-19T23:20:07.106Z,0.30
2023-02-19T23:25:12.485Z,0.40
2023-02-19T23:30:18.017Z,0.43
2023-02-19T23:35:21.926Z,0.45
2023-02-19T23:40:26.949Z,0.47
2023-02-19T23:45:31.732Z,0.48
2023-02-19T23:50:36.255Z,0.55
2023-02-19T23:55:40.935Z,0.60
